Terminal Aerodrome Forecast
Issued by NWS Twin Cities, MN

Home | Current Version | Previous Version | Graphics & Text | Print | Product List | Glossary On
Versions: 1 2 3 4 5 6 7 8 9 10 11 12
000
FTUS43 KMPX 021720
TAFEAU
TAF
KEAU 021720Z 0218/0318 21012G18KT P6SM FEW060
     FM022300 20010KT P6SM VCSH SCT050 BKN110
     FM030100 18007KT P6SM SCT060 SCT250
     FM031500 20010KT P6SM SCT035=

USA.gov is the U.S. government's official web portal to all federal, state and local government web resources and services.